Time;durP1;ratioP1;P1;durP2;ratioP2;P2;SDS_P1;SDS_P2;PMS_P1;PMS_P2;Temp;Humidity;BMP_temperature;BMP_pressure;BME280_temperature;BME280_humidity;BME280_pressure;Samples;Min_cycle;Max_cycle;Signal;HPM_P1;HPM_P2
2022/08/11 00:01:46;;;;;;;2.03;1.00;;;15.90;95.80;;;;;;5089132;28;20860;-82
2022/08/11 00:04:14;;;;;;;1.80;1.00;;;15.90;95.80;;;;;;5088512;28;20560;-82
2022/08/11 00:06:44;;;;;;;1.30;0.80;;;15.90;95.90;;;;;;5087764;28;20538;-81
2022/08/11 00:09:13;;;;;;;1.10;1.10;;;15.90;95.60;;;;;;5098567;28;20453;-81
2022/08/11 00:11:46;;;;;;;1.50;1.00;;;15.90;95.60;;;;;;5084169;28;20463;-82
2022/08/11 00:14:17;;;;;;;1.57;0.90;;;15.80;96.00;;;;;;5083875;28;20498;-82
2022/08/11 00:16:53;;;;;;;2.27;1.40;;;15.80;96.00;;;;;;5081251;28;20455;-82
2022/08/11 00:19:23;;;;;;;1.83;0.70;;;15.80;96.30;;;;;;5077630;28;20474;-81
2022/08/11 00:21:51;;;;;;;0.90;0.80;;;15.60;96.50;;;;;;5078719;28;20459;-81
2022/08/11 00:24:19;;;;;;;1.80;1.70;;;15.50;97.00;;;;;;5081206;28;21027;-82
2022/08/11 00:26:52;;;;;;;1.10;1.00;;;15.40;97.40;;;;;;5082318;28;21024;-81
2022/08/11 00:29:20;;;;;;;2.20;1.23;;;15.30;97.90;;;;;;5078191;28;20534;-82
2022/08/11 00:31:50;;;;;;;3.40;0.90;;;15.30;98.10;;;;;;5082747;28;20491;-82
2022/08/11 00:34:21;;;;;;;4.53;1.30;;;15.40;97.90;;;;;;5087346;28;21323;-82
2022/08/11 00:36:52;;;;;;;1.00;0.90;;;15.50;97.60;;;;;;5086935;28;20863;-81
2022/08/11 00:39:21;;;;;;;2.77;1.43;;;15.70;97.40;;;;;;5084550;28;20506;-82
2022/08/11 00:42:06;;;;;;;2.40;1.10;;;15.70;97.30;;;;;;5082877;28;20477;-82
2022/08/11 00:44:42;;;;;;;1.27;1.00;;;15.70;97.30;;;;;;5079695;28;20581;-81
2022/08/11 00:47:18;;;;;;;2.70;1.13;;;15.70;97.50;;;;;;5078878;28;20945;-82
2022/08/11 00:50:01;;;;;;;1.33;1.23;;;15.60;97.50;;;;;;5077228;28;20457;-81
2022/08/11 00:52:44;;;;;;;1.00;0.90;;;15.50;97.70;;;;;;5083791;28;20547;-82
2022/08/11 00:55:39;;;;;;;1.90;1.00;;;15.50;98.00;;;;;;5078715;28;20474;-81
2022/08/11 00:58:58;;;;;;;1.30;1.20;;;15.60;97.80;;;;;;5079445;28;20549;-81
2022/08/11 01:01:44;;;;;;;2.63;1.30;;;15.60;97.60;;;;;;5081640;28;20505;-81
2022/08/11 01:04:56;;;;;;;4.03;1.20;;;15.60;97.50;;;;;;5081168;28;20453;-82
2022/08/11 01:07:56;;;;;;;1.20;1.10;;;15.50;97.70;;;;;;5077229;28;20443;-81
2022/08/11 01:11:06;;;;;;;1.53;1.40;;;15.50;98.00;;;;;;5075883;28;20513;-81
2022/08/11 01:14:01;;;;;;;1.80;1.53;;;15.50;98.20;;;;;;5077032;28;20941;-81
2022/08/11 01:17:07;;;;;;;1.20;1.10;;;15.50;97.90;;;;;;5033229;28;20940;-81
2022/08/11 01:20:03;;;;;;;1.80;1.70;;;15.50;97.80;;;;;;5030956;28;20829;-82
2022/08/11 01:23:11;;;;;;;1.57;1.47;;;15.60;97.80;;;;;;5071196;28;20645;-82
2022/08/11 01:26:07;;;;;;;2.07;1.30;;;15.50;98.00;;;;;;5080192;28;20568;-81
2022/08/11 01:29:04;;;;;;;1.00;0.90;;;15.50;97.80;;;;;;5081444;28;20449;-81
2022/08/11 01:32:07;;;;;;;1.10;1.00;;;15.60;97.80;;;;;;5075261;28;20458;-82
2022/08/11 01:35:20;;;;;;;1.47;1.33;;;15.60;97.40;;;;;;5075483;28;20540;-82
2022/08/11 01:38:21;;;;;;;1.23;1.13;;;15.80;96.90;;;;;;5081449;28;20442;-81
2022/08/11 01:41:12;;;;;;;2.90;1.27;;;15.70;97.00;;;;;;5076116;28;20537;-81
2022/08/11 01:47:02;;;;;;;1.63;1.40;;;15.70;96.90;;;;;;5075771;28;20475;-81
2022/08/11 01:49:39;;;;;;;3.13;1.20;;;15.70;97.00;;;;;;5075614;28;20473;-82
2022/08/11 01:52:19;;;;;;;1.30;1.00;;;15.70;96.90;;;;;;5075505;28;20549;-81
2022/08/11 01:54:53;;;;;;;7.23;2.23;;;15.70;97.00;;;;;;5080803;28;20462;-81
2022/08/11 01:57:33;;;;;;;1.17;1.00;;;15.70;96.80;;;;;;5084595;28;20449;-81
2022/08/11 02:00:08;;;;;;;1.13;1.00;;;15.70;96.90;;;;;;5082796;28;20899;-82
2022/08/11 02:02:46;;;;;;;1.20;1.00;;;15.70;96.90;;;;;;5082448;28;21046;-81
2022/08/11 02:05:29;;;;;;;1.20;1.10;;;15.70;97.10;;;;;;5078268;28;20466;-80
2022/08/11 02:08:10;;;;;;;2.27;1.33;;;15.70;96.80;;;;;;5085993;28;20450;-81
2022/08/11 02:13:37;;;;;;;1.20;1.10;;;15.70;96.70;;;;;;5081635;28;20448;-81
2022/08/11 02:16:13;;;;;;;0.97;0.90;;;15.70;96.80;;;;;;5079556;28;20475;-81
2022/08/11 02:24:34;;;;;;;1.90;1.60;;;15.80;96.50;;;;;;5078922;28;21040;-81
2022/08/11 02:27:06;;;;;;;1.00;0.93;;;15.80;96.50;;;;;;5080177;28;20452;-81
2022/08/11 02:29:46;;;;;;;1.30;1.10;;;15.80;96.60;;;;;;5086379;28;20506;-81
2022/08/11 02:35:14;;;;;;;1.20;1.07;;;15.60;97.00;;;;;;5078885;28;20458;-81
2022/08/11 02:37:52;;;;;;;1.10;1.00;;;15.60;96.90;;;;;;5080432;28;20518;-82
2022/08/11 02:40:34;;;;;;;1.10;1.00;;;15.60;96.90;;;;;;5077955;28;20587;-82
2022/08/11 02:43:10;;;;;;;1.30;1.20;;;15.60;97.10;;;;;;5086110;28;20481;-81
2022/08/11 02:45:53;;;;;;;2.50;1.73;;;15.60;96.90;;;;;;5079394;28;20878;-82
2022/08/11 02:51:29;;;;;;;1.47;1.37;;;15.60;96.80;;;;;;5089804;28;20452;-81
2022/08/11 02:54:08;;;;;;;1.40;1.20;;;15.60;96.90;;;;;;5076572;28;20887;-80
2022/08/11 02:56:50;;;;;;;1.10;1.00;;;15.60;96.90;;;;;;5086647;28;20515;-80
2022/08/11 03:02:17;;;;;;;1.03;1.03;;;15.50;97.20;;;;;;5084975;28;20449;-81
2022/08/11 03:04:59;;;;;;;1.00;0.90;;;15.60;97.00;;;;;;5084479;28;20462;-81
2022/08/11 03:07:32;;;;;;;1.90;1.10;;;15.60;97.00;;;;;;5077175;28;20497;-82
2022/08/11 03:10:08;;;;;;;1.37;1.20;;;15.60;96.90;;;;;;5080456;28;20474;-81
2022/08/11 03:18:31;;;;;;;1.17;1.07;;;15.60;97.20;;;;;;5075654;28;20460;-81
2022/08/11 03:21:06;;;;;;;2.23;1.60;;;15.60;97.20;;;;;;5081512;28;20540;-82
2022/08/11 03:23:39;;;;;;;1.37;1.13;;;15.50;97.20;;;;;;5083474;28;20445;-81
2022/08/11 03:26:13;;;;;;;4.10;1.43;;;15.40;97.20;;;;;;5085906;28;20807;-81
2022/08/11 03:28:48;;;;;;;0.80;0.80;;;15.30;97.60;;;;;;5079565;28;20532;-81
2022/08/11 03:31:24;;;;;;;1.23;1.20;;;15.30;97.70;;;;;;5084879;28;20470;-81
2022/08/11 03:34:03;;;;;;;1.63;1.53;;;15.30;97.70;;;;;;5078338;28;20461;-82
2022/08/11 03:37:10;;;;;;;2.50;1.13;;;15.40;97.80;;;;;;5086800;28;20617;-82
2022/08/11 03:39:49;;;;;;;1.70;1.60;;;15.40;97.70;;;;;;5092617;28;20467;-82
2022/08/11 03:42:25;;;;;;;1.90;1.10;;;15.40;97.50;;;;;;5100096;28;20530;-81
2022/08/11 03:45:15;;;;;;;1.60;0.87;;;15.40;97.50;;;;;;5088763;28;20464;-81
2022/08/11 03:48:06;;;;;;;3.80;1.33;;;15.30;97.80;;;;;;5088933;28;20500;-82
2022/08/11 03:50:54;;;;;;;1.33;1.23;;;15.40;97.70;;;;;;5073757;28;20465;-81
2022/08/11 03:53:42;;;;;;;1.30;1.10;;;15.50;97.40;;;;;;5082682;28;21322;-81
2022/08/11 03:56:53;;;;;;;1.17;0.90;;;15.40;97.60;;;;;;5086408;28;20533;-81
2022/08/11 03:59:48;;;;;;;1.33;1.23;;;15.40;97.50;;;;;;5077733;28;21290;-81
2022/08/11 04:02:49;;;;;;;0.63;0.60;;;15.30;98.00;;;;;;5056156;28;20872;-81
2022/08/11 04:05:35;;;;;;;1.43;1.33;;;15.30;98.20;;;;;;5083332;28;20863;-81
2022/08/11 04:08:35;;;;;;;1.30;1.20;;;15.30;98.30;;;;;;5081716;28;20548;-81
2022/08/11 04:11:31;;;;;;;1.27;1.17;;;15.20;98.60;;;;;;5084192;28;20938;-81
2022/08/11 04:18:00;;;;;;;1.33;1.20;;;15.10;98.90;;;;;;5079988;28;20430;-81
2022/08/11 04:20:51;;;;;;;1.37;1.27;;;15.10;99.30;;;;;;5062527;28;20557;-82
2022/08/11 04:24:04;;;;;;;1.43;1.10;;;15.10;99.20;;;;;;5073230;28;21273;-81
2022/08/11 04:27:16;;;;;;;1.70;1.57;;;15.10;99.20;;;;;;4987292;28;20536;-82
2022/08/11 04:29:59;;;;;;;2.37;2.17;;;15.10;99.50;;;;;;5086083;28;20474;-82
2022/08/11 04:33:05;;;;;;;1.37;1.27;;;15.10;99.30;;;;;;5083463;28;20488;-80
2022/08/11 04:35:45;;;;;;;3.13;1.40;;;15.20;99.00;;;;;;5017343;28;21127;-81
2022/08/11 04:38:53;;;;;;;2.60;1.33;;;15.20;99.00;;;;;;5072734;28;21009;-81
2022/08/11 04:45:18;;;;;;;2.00;1.90;;;15.30;99.30;;;;;;5081733;28;20462;-82
2022/08/11 05:03:35;;;;;;;2.40;1.63;;;15.30;99.80;;;;;;5076196;28;20452;-81
2022/08/11 05:06:33;;;;;;;4.43;1.30;;;15.30;99.90;;;;;;5082009;28;20451;-82
2022/08/11 05:09:34;;;;;;;2.13;1.50;;;15.40;99.90;;;;;;5079236;28;20514;-83
2022/08/11 05:12:14;;;;;;;1.57;1.27;;;15.40;99.70;;;;;;5067757;28;20461;-86
2022/08/11 05:34:52;;;;;;;3.50;1.50;;;16.30;97.90;;;;;;5072820;28;20504;-81
2022/08/11 05:37:23;;;;;;;1.87;1.20;;;16.40;98.00;;;;;;5076184;28;20690;-82
2022/08/11 05:56:47;;;;;;;1.50;1.10;;;16.70;97.30;;;;;;5082443;28;20866;-81
2022/08/11 05:59:15;;;;;;;0.83;0.83;;;16.90;96.90;;;;;;5081422;28;20538;-83
2022/08/11 06:01:43;;;;;;;1.30;1.20;;;16.90;97.00;;;;;;5075246;28;20485;-82
2022/08/11 06:04:17;;;;;;;1.00;1.00;;;17.10;96.30;;;;;;5077688;28;20597;-81
2022/08/11 06:06:54;;;;;;;1.53;1.20;;;17.20;96.00;;;;;;5081534;28;20462;-81
2022/08/11 06:09:32;;;;;;;1.47;1.00;;;17.30;95.90;;;;;;5080691;28;21214;-83
2022/08/11 06:12:04;;;;;;;0.90;0.90;;;17.40;96.20;;;;;;5084089;28;21009;-83
2022/08/11 06:14:32;;;;;;;3.60;1.57;;;17.50;95.10;;;;;;5087677;28;21238;-82
2022/08/11 06:17:01;;;;;;;5.30;1.37;;;17.70;95.60;;;;;;5086646;28;20462;-82
2022/08/11 06:19:33;;;;;;;1.67;1.07;;;17.90;95.10;;;;;;5087310;28;20450;-82
2022/08/11 06:22:03;;;;;;;3.27;1.30;;;18.20;94.10;;;;;;5071038;28;20483;-83
2022/08/11 06:24:31;;;;;;;2.10;1.03;;;18.20;94.30;;;;;;5075072;28;21041;-84
2022/08/11 06:27:01;;;;;;;1.10;1.10;;;18.30;94.20;;;;;;5080707;28;20552;-85
2022/08/11 06:29:29;;;;;;;1.90;1.00;;;18.40;94.00;;;;;;5075394;28;20467;-88
2022/08/11 06:31:59;;;;;;;1.57;1.23;;;18.60;93.80;;;;;;5086460;28;21044;-85
2022/08/11 06:35:05;;;;;;;2.17;1.00;;;18.70;93.40;;;;;;5100946;28;20474;-84
2022/08/11 06:37:44;;;;;;;2.37;1.17;;;18.80;93.10;;;;;;5054520;28;20452;-84
2022/08/11 06:40:21;;;;;;;4.30;1.50;;;18.90;92.10;;;;;;5093664;28;20458;-84
2022/08/11 06:42:54;;;;;;;4.43;1.80;;;19.10;92.60;;;;;;5080294;28;20489;-86
2022/08/11 06:45:36;;;;;;;1.33;1.17;;;19.20;91.90;;;;;;5089790;28;20588;-86
2022/08/11 06:48:05;;;;;;;1.63;0.90;;;19.20;92.00;;;;;;5085412;28;20459;-87
2022/08/11 06:53:20;;;;;;;1.33;1.13;;;19.40;91.00;;;;;;5086549;28;20824;-84
2022/08/11 07:01:37;;;;;;;2.80;1.20;;;19.60;90.70;;;;;;5097831;28;20503;-84
2022/08/11 07:04:07;;;;;;;1.10;0.90;;;19.70;90.30;;;;;;5077840;28;20494;-84
2022/08/11 07:15:40;;;;;;;3.70;1.70;;;19.70;90.60;;;;;;5080973;28;20549;-86
2022/08/11 07:15:44;;;;;;;1.87;1.17;;;20.20;89.50;;;;;;5073171;28;20459;-83
2022/08/11 07:29:36;;;;;;;1.30;1.20;;;20.70;87.70;;;;;;5078615;28;20512;-84
2022/08/11 07:32:14;;;;;;;1.40;1.20;;;20.70;88.10;;;;;;5083281;28;20885;-84
2022/08/11 07:34:46;;;;;;;2.03;1.67;;;20.90;86.40;;;;;;5076442;28;20462;-84
2022/08/11 07:37:18;;;;;;;0.70;0.60;;;21.10;87.30;;;;;;5079936;28;20475;-83
2022/08/11 07:39:49;;;;;;;1.10;1.10;;;21.20;85.30;;;;;;5083171;28;20470;-86
2022/08/11 07:42:20;;;;;;;1.20;0.80;;;21.40;85.20;;;;;;5082725;28;21036;-85
2022/08/11 07:53:07;;;;;;;1.80;1.30;;;21.50;83.90;;;;;;5082328;28;20481;-85
2022/08/11 07:55:34;;;;;;;1.10;1.00;;;21.50;81.60;;;;;;5081426;28;20507;-85
2022/08/11 08:20:14;;;;;;;1.40;1.30;;;22.40;79.30;;;;;;5074086;28;20589;-85
2022/08/11 08:22:42;;;;;;;0.80;0.80;;;22.40;76.90;;;;;;5068099;28;21256;-85
2022/08/11 08:25:10;;;;;;;2.63;0.70;;;22.50;79.00;;;;;;5074572;28;20467;-85
2022/08/11 08:27:38;;;;;;;3.80;0.77;;;22.80;79.10;;;;;;5067887;28;20517;-86
2022/08/11 08:32:54;;;;;;;1.10;1.00;;;23.40;78.80;;;;;;5086186;28;20442;-82
2022/08/11 08:35:23;;;;;;;0.90;0.70;;;23.30;75.00;;;;;;5086102;28;20443;-82
2022/08/11 08:37:51;;;;;;;1.13;1.03;;;23.30;77.20;;;;;;5078103;28;20460;-83
2022/08/11 08:40:18;;;;;;;0.80;0.80;;;23.50;74.50;;;;;;5081085;28;21202;-81
2022/08/11 08:42:50;;;;;;;0.70;0.70;;;23.50;75.80;;;;;;5083728;28;20494;-82
2022/08/11 08:45:18;;;;;;;0.93;0.80;;;23.40;74.30;;;;;;5084059;28;20554;-84
2022/08/11 08:47:51;;;;;;;1.10;1.00;;;23.20;74.30;;;;;;5072804;28;20458;-83
2022/08/11 08:51:32;;;;;;;1.63;1.50;;;23.20;72.30;;;;;;5078291;28;20480;-85
2022/08/11 08:53:11;;;;;;;0.60;0.50;;;23.40;71.50;;;;;;5074515;28;20467;-81
2022/08/11 08:55:39;;;;;;;0.57;0.57;;;23.50;71.60;;;;;;5091269;28;21053;-80
2022/08/11 08:58:07;;;;;;;2.07;1.00;;;23.50;69.60;;;;;;5072385;28;20826;-80
2022/08/11 09:00:40;;;;;;;1.70;0.70;;;23.60;71.10;;;;;;5085286;28;20972;-80
2022/08/11 09:03:08;;;;;;;1.20;0.80;;;23.70;71.10;;;;;;5070548;28;20547;-80
2022/08/11 09:05:37;;;;;;;0.90;0.80;;;23.50;69.90;;;;;;5080106;28;20473;-80
2022/08/11 09:08:05;;;;;;;2.23;0.60;;;23.70;68.30;;;;;;5080329;28;20479;-80
2022/08/11 09:10:32;;;;;;;0.77;0.70;;;23.60;64.50;;;;;;5088809;28;20457;-80
2022/08/11 09:13:00;;;;;;;2.00;0.93;;;23.90;69.60;;;;;;5073259;28;20470;-80
2022/08/11 09:15:28;;;;;;;0.80;0.70;;;24.10;66.70;;;;;;5066914;28;20487;-79
2022/08/11 09:18:04;;;;;;;1.57;0.60;;;24.00;65.50;;;;;;5077017;28;20879;-80
2022/08/11 09:20:34;;;;;;;1.70;0.83;;;24.10;68.40;;;;;;5077516;28;20463;-79
2022/08/11 09:28:37;;;;;;;2.30;0.87;;;24.10;65.80;;;;;;5081049;28;20452;-79
2022/08/11 09:31:06;;;;;;;0.97;0.70;;;24.20;65.30;;;;;;5091134;28;20463;-80
2022/08/11 09:33:35;;;;;;;1.27;0.90;;;24.30;63.20;;;;;;5075136;28;20529;-82
2022/08/11 09:40:27;;;;;;;0.83;0.50;;;24.20;64.00;;;;;;5068745;28;20518;-81
2022/08/11 09:41:40;;;;;;;5.87;0.60;;;24.00;64.60;;;;;;5068165;28;20478;-78
2022/08/11 09:46:58;;;;;;;0.80;0.60;;;24.20;65.30;;;;;;5073114;28;20450;-80
2022/08/11 09:49:26;;;;;;;2.10;0.63;;;24.30;63.90;;;;;;5066908;28;20877;-80
2022/08/11 09:51:54;;;;;;;0.90;0.90;;;24.50;62.90;;;;;;5069927;28;20534;-80
2022/08/11 09:54:24;;;;;;;0.80;0.60;;;24.50;63.80;;;;;;5071721;28;20459;-79
2022/08/11 09:59:37;;;;;;;0.50;0.43;;;24.70;60.00;;;;;;5073128;28;20446;-79
2022/08/11 10:02:07;;;;;;;0.57;0.50;;;24.60;59.90;;;;;;5073824;28;20533;-81
2022/08/11 10:04:38;;;;;;;0.83;0.73;;;24.60;59.00;;;;;;5068469;28;20525;-81
2022/08/11 10:07:08;;;;;;;1.50;0.60;;;24.70;58.10;;;;;;5078207;28;20512;-79
2022/08/11 10:09:49;;;;;;;0.90;0.60;;;24.90;58.20;;;;;;5081068;28;20455;-80
2022/08/11 10:12:23;;;;;;;0.70;0.70;;;25.00;59.10;;;;;;5069606;28;20447;-82
2022/08/11 10:18:40;;;;;;;1.87;0.60;;;25.20;58.20;;;;;;5077848;28;20463;-80
2022/08/11 10:20:35;;;;;;;0.70;0.50;;;25.00;59.80;;;;;;5072916;28;20439;-80
2022/08/11 10:28:36;;;;;;;0.87;0.70;;;25.30;57.50;;;;;;5074718;28;20489;-81
2022/08/11 10:34:05;;;;;;;0.60;0.50;;;25.20;57.60;;;;;;5076694;28;21117;-84
2022/08/11 10:36:33;;;;;;;1.80;0.87;;;25.20;59.00;;;;;;5072823;28;22439;-82
2022/08/11 10:39:02;;;;;;;0.70;0.53;;;25.40;59.00;;;;;;5067254;28;20536;-81
2022/08/11 10:44:18;;;;;;;2.53;1.10;;;25.40;57.70;;;;;;5069701;28;20495;-80
2022/08/11 10:49:31;;;;;;;0.70;0.60;;;25.60;58.10;;;;;;5073964;28;20655;-81
2022/08/11 11:00:16;;;;;;;1.07;0.80;;;25.30;59.00;;;;;;5081539;28;20457;-80
2022/08/11 11:02:44;;;;;;;1.07;0.70;;;25.70;59.50;;;;;;5079654;28;20487;-83
2022/08/11 11:05:16;;;;;;;0.60;0.50;;;25.80;55.80;;;;;;5075478;28;20459;-84
2022/08/11 11:07:52;;;;;;;0.70;0.70;;;25.60;55.80;;;;;;5071456;28;20468;-82
2022/08/11 11:10:20;;;;;;;2.50;0.70;;;26.10;56.50;;;;;;5074936;28;20470;-82
2022/08/11 11:18:34;;;;;;;0.80;0.80;;;25.70;53.90;;;;;;5077591;28;20454;-84
2022/08/11 11:21:05;;;;;;;2.87;0.50;;;25.70;54.60;;;;;;5071617;28;20475;-85
2022/08/11 11:23:38;;;;;;;1.00;0.70;;;26.00;56.20;;;;;;5074787;28;20892;-84
2022/08/11 11:26:31;;;;;;;0.60;0.57;;;26.30;57.60;;;;;;5078505;28;20471;-85
2022/08/11 11:29:37;;;;;;;0.60;0.60;;;26.40;54.90;;;;;;5071508;28;20512;-81
2022/08/11 11:32:16;;;;;;;1.40;0.63;;;26.30;54.00;;;;;;5075625;28;20830;-84
2022/08/11 11:35:01;;;;;;;0.80;0.80;;;26.00;54.10;;;;;;5074880;28;20521;-81
2022/08/11 11:37:32;;;;;;;0.60;0.60;;;26.10;55.30;;;;;;5077097;28;20459;-78
2022/08/11 11:40:00;;;;;;;1.93;0.80;;;26.20;54.90;;;;;;5074926;28;20977;-80
2022/08/11 11:42:28;;;;;;;0.67;0.60;;;26.10;53.40;;;;;;5071826;28;20527;-79
2022/08/11 11:44:58;;;;;;;0.70;0.70;;;25.80;54.10;;;;;;5069056;28;21036;-80
2022/08/11 11:47:26;;;;;;;0.70;0.70;;;26.00;53.70;;;;;;5073525;28;20943;-81
2022/08/11 11:49:55;;;;;;;1.20;0.70;;;25.90;53.40;;;;;;5077964;28;20478;-81
2022/08/11 11:52:23;;;;;;;0.80;0.60;;;26.20;54.50;;;;;;5080781;28;20451;-80
2022/08/11 11:54:54;;;;;;;1.07;0.60;;;26.40;53.40;;;;;;5070239;28;20477;-79
2022/08/11 12:02:56;;;;;;;0.87;0.73;;;26.10;52.20;;;;;;5071057;28;20486;-80
2022/08/11 12:05:25;;;;;;;0.60;0.60;;;26.20;53.40;;;;;;5075507;28;20443;-79
2022/08/11 12:10:37;;;;;;;0.70;0.60;;;26.90;52.40;;;;;;5072625;28;20560;-80
2022/08/11 12:15:53;;;;;;;0.60;0.60;;;26.40;52.00;;;;;;5051502;28;20437;-80
2022/08/11 12:18:20;;;;;;;0.67;0.67;;;26.60;51.20;;;;;;5070197;28;21311;-80
2022/08/11 12:20:48;;;;;;;0.70;0.60;;;26.70;51.00;;;;;;5075585;28;20535;-79
2022/08/11 12:28:46;;;;;;;0.67;0.67;;;26.50;51.30;;;;;;5074545;28;20465;-83
2022/08/11 12:31:15;;;;;;;0.80;0.80;;;26.60;50.70;;;;;;5073198;28;20535;-83
2022/08/11 12:33:42;;;;;;;0.80;0.50;;;26.60;48.60;;;;;;5071549;28;21021;-82
2022/08/11 12:36:15;;;;;;;1.87;0.60;;;26.30;49.70;;;;;;5072586;28;20460;-88
2022/08/11 12:38:46;;;;;;;0.50;0.50;;;26.40;49.00;;;;;;5072632;28;20540;-86
2022/08/11 12:46:48;;;;;;;0.90;0.60;;;26.90;52.40;;;;;;5077718;28;20473;-85
2022/08/11 12:52:08;;;;;;;0.60;0.60;;;26.80;48.30;;;;;;5067631;28;20584;-88
2022/08/11 12:54:41;;;;;;;0.60;0.60;;;26.70;48.80;;;;;;5071963;28;20467;-85
2022/08/11 13:05:33;;;;;;;0.60;0.60;;;27.00;49.00;;;;;;5067042;28;20463;-88
2022/08/11 13:08:01;;;;;;;0.80;0.80;;;26.90;48.30;;;;;;5070206;28;20547;-85
2022/08/11 13:13:19;;;;;;;0.60;0.50;;;27.00;48.40;;;;;;5068586;28;20551;-86
2022/08/11 13:15:48;;;;;;;1.53;0.80;;;27.20;48.20;;;;;;5073076;28;20474;-84
2022/08/11 13:18:21;;;;;;;0.70;0.60;;;27.10;47.10;;;;;;5073095;28;20471;-84
2022/08/11 13:20:49;;;;;;;0.70;0.70;;;26.60;46.80;;;;;;5077898;28;20543;-86
2022/08/11 13:23:17;;;;;;;1.00;0.50;;;26.70;48.90;;;;;;5064439;28;20548;-84
2022/08/11 13:25:44;;;;;;;1.03;0.50;;;27.10;49.70;;;;;;5074733;28;20965;-87
2022/08/11 13:28:12;;;;;;;0.70;0.60;;;27.10;47.70;;;;;;5068336;28;20463;-85
2022/08/11 13:33:26;;;;;;;0.80;0.60;;;27.20;48.90;;;;;;5066810;28;20896;-86
2022/08/11 13:35:55;;;;;;;1.07;0.60;;;27.50;47.80;;;;;;5074531;28;20509;-84
2022/08/11 13:38:25;;;;;;;0.60;0.60;;;27.60;48.30;;;;;;5068032;28;20467;-87
2022/08/11 13:40:54;;;;;;;0.87;0.67;;;27.30;47.80;;;;;;5084515;28;20853;-85
2022/08/11 13:43:23;;;;;;;1.50;0.70;;;27.10;47.80;;;;;;5072657;28;20499;-84
2022/08/11 13:46:17;;;;;;;1.37;0.70;;;27.00;48.40;;;;;;5070059;28;20518;-87
2022/08/11 13:48:41;;;;;;;1.47;1.13;;;26.80;47.00;;;;;;5079759;28;20530;-84
2022/08/11 13:53:55;;;;;;;1.00;0.50;;;27.00;48.00;;;;;;5076496;28;20470;-84
2022/08/11 13:56:23;;;;;;;0.60;0.60;;;27.20;47.40;;;;;;5078448;28;20543;-86
2022/08/11 13:58:51;;;;;;;0.50;0.50;;;26.90;47.30;;;;;;5065310;28;20460;-85
2022/08/11 14:01:20;;;;;;;1.37;0.60;;;26.90;45.20;;;;;;5068306;28;20468;-84
2022/08/11 14:03:50;;;;;;;0.90;0.50;;;26.80;45.20;;;;;;5066576;28;20515;-85
2022/08/11 14:06:28;;;;;;;0.77;0.60;;;26.90;46.40;;;;;;5068730;28;20458;-86
2022/08/11 14:08:56;;;;;;;0.70;0.50;;;27.00;43.00;;;;;;5067805;28;20470;-89
2022/08/11 14:14:13;;;;;;;0.60;0.60;;;26.90;46.60;;;;;;5063665;28;20501;-85
2022/08/11 14:16:43;;;;;;;0.60;0.60;;;26.70;47.00;;;;;;5068565;28;20548;-87
2022/08/11 14:19:14;;;;;;;2.53;1.03;;;26.70;47.30;;;;;;5062216;28;20455;-85
2022/08/11 14:24:29;;;;;;;1.17;0.73;;;26.80;47.60;;;;;;5068209;28;20863;-87
2022/08/11 14:26:56;;;;;;;1.00;0.80;;;26.80;46.30;;;;;;5073559;28;20494;-86
2022/08/11 14:29:26;;;;;;;1.97;0.57;;;26.90;45.10;;;;;;5070770;28;20463;-86
2022/08/11 14:31:56;;;;;;;0.57;0.50;;;27.30;47.40;;;;;;5072668;28;21174;-83
2022/08/11 14:34:27;;;;;;;0.70;0.60;;;27.50;45.80;;;;;;5075662;28;20458;-84
2022/08/11 14:36:59;;;;;;;0.80;0.60;;;27.40;46.50;;;;;;5080301;28;20467;-85
2022/08/11 14:39:28;;;;;;;0.70;0.60;;;27.20;45.60;;;;;;5080869;28;20989;-86
2022/08/11 14:47:47;;;;;;;0.53;0.50;;;27.20;45.90;;;;;;5010958;28;20492;-84
2022/08/11 14:50:21;;;;;;;1.17;0.60;;;27.10;45.40;;;;;;5056794;28;20575;-84
2022/08/11 14:52:53;;;;;;;0.60;0.60;;;26.90;44.20;;;;;;5071816;28;20471;-84
2022/08/11 14:58:09;;;;;;;0.80;0.50;;;27.10;47.60;;;;;;5073330;28;20993;-85
2022/08/11 15:00:37;;;;;;;0.80;0.60;;;27.30;45.80;;;;;;5072489;28;20490;-83
2022/08/11 15:03:10;;;;;;;0.50;0.43;;;27.20;45.60;;;;;;5070836;28;20486;-83
2022/08/11 15:05:42;;;;;;;0.57;0.50;;;27.30;46.00;;;;;;5074746;28;20505;-84
2022/08/11 15:08:09;;;;;;;0.90;0.70;;;27.20;46.60;;;;;;5076429;28;21040;-83
2022/08/11 15:10:37;;;;;;;1.10;0.67;;;27.20;46.30;;;;;;5074900;28;20459;-84
2022/08/11 15:13:05;;;;;;;0.60;0.60;;;27.20;46.10;;;;;;5094253;28;20451;-83
2022/08/11 15:18:20;;;;;;;0.60;0.50;;;27.50;45.10;;;;;;5073017;28;20535;-87
2022/08/11 15:37:25;;;;;;;1.20;0.60;;;27.40;44.70;;;;;;5071232;28;20548;-86
2022/08/11 15:37:35;;;;;;;0.60;0.50;;;27.00;45.50;;;;;;5073722;28;20532;-84
2022/08/11 15:45:49;;;;;;;1.50;0.53;;;27.20;44.80;;;;;;5071200;28;20998;-84
2022/08/11 15:48:26;;;;;;;0.60;0.50;;;28.00;43.70;;;;;;5066577;28;22524;-86
2022/08/11 15:50:57;;;;;;;3.97;1.00;;;28.50;42.80;;;;;;5068297;28;20486;-83
2022/08/11 15:53:31;;;;;;;0.60;0.50;;;28.20;42.80;;;;;;5073610;28;20492;-85
2022/08/11 15:56:00;;;;;;;0.70;0.70;;;27.40;43.10;;;;;;5069192;28;20525;-84
2022/08/11 16:04:11;;;;;;;0.70;0.70;;;27.50;44.00;;;;;;5075487;28;20474;-84
2022/08/11 16:06:42;;;;;;;0.70;0.60;;;28.20;43.00;;;;;;5074390;28;20477;-84
2022/08/11 16:09:14;;;;;;;0.67;0.53;;;28.50;41.90;;;;;;5070817;28;20459;-84
2022/08/11 16:11:43;;;;;;;0.90;0.83;;;28.10;42.10;;;;;;5064689;28;20462;-84
2022/08/11 16:16:58;;;;;;;1.03;0.60;;;27.20;43.40;;;;;;5076553;28;20994;-86
2022/08/11 16:19:27;;;;;;;1.97;0.67;;;27.00;44.30;;;;;;5075768;28;20467;-86
2022/08/11 16:21:56;;;;;;;1.33;0.80;;;26.80;45.40;;;;;;5069038;28;20815;-87
2022/08/11 16:24:26;;;;;;;0.50;0.40;;;26.40;47.20;;;;;;5067940;28;20483;-86
2022/08/11 16:26:54;;;;;;;1.10;0.60;;;26.40;46.10;;;;;;5068763;28;20505;-84
2022/08/11 16:29:25;;;;;;;2.40;0.63;;;26.10;45.70;;;;;;5074246;28;20982;-83
2022/08/11 16:40:09;;;;;;;1.10;0.63;;;25.60;47.30;;;;;;5083819;28;20438;-83
2022/08/11 16:48:07;;;;;;;0.93;0.50;;;25.10;47.70;;;;;;5080495;28;20459;-83
2022/08/11 16:50:35;;;;;;;0.80;0.53;;;25.00;48.60;;;;;;5083405;28;20463;-86
2022/08/11 16:53:03;;;;;;;0.60;0.43;;;24.70;48.80;;;;;;5080278;28;20466;-85
2022/08/11 16:55:32;;;;;;;0.53;0.50;;;24.50;48.10;;;;;;5071912;28;20505;-85
2022/08/11 17:00:44;;;;;;;0.60;0.50;;;24.40;49.70;;;;;;5077465;28;20438;-83
2022/08/11 17:14:25;;;;;;;0.60;0.50;;;23.90;49.90;;;;;;5074379;28;20450;-85
2022/08/11 17:16:52;;;;;;;0.57;0.50;;;23.80;50.30;;;;;;5070018;28;20543;-86
2022/08/11 17:19:24;;;;;;;0.70;0.60;;;23.60;50.60;;;;;;5073462;28;20527;-84
2022/08/11 17:24:41;;;;;;;0.90;0.57;;;23.50;51.30;;;;;;5070565;28;20518;-85
2022/08/11 17:27:15;;;;;;;2.50;0.60;;;23.30;51.90;;;;;;5066211;28;20468;-84
2022/08/11 17:29:46;;;;;;;1.23;0.57;;;23.20;51.90;;;;;;5075585;28;20962;-84
2022/08/11 17:35:30;;;;;;;1.43;0.50;;;23.00;52.30;;;;;;5066549;28;20463;-83
2022/08/11 17:38:00;;;;;;;0.57;0.53;;;22.90;52.90;;;;;;5070884;28;20555;-83
2022/08/11 17:40:29;;;;;;;0.77;0.60;;;22.80;53.00;;;;;;5070130;28;20452;-84
2022/08/11 17:48:34;;;;;;;0.60;0.50;;;22.70;53.40;;;;;;5071133;28;20547;-84
2022/08/11 17:51:06;;;;;;;0.77;0.60;;;22.60;53.70;;;;;;5075824;28;20467;-84
2022/08/11 18:04:49;;;;;;;0.90;0.40;;;22.10;54.80;;;;;;5086408;28;20474;-86
